createdAt,value
2019-04-28T00:00:06.641Z,28.43
2019-04-28T00:02:40.840Z,26.60
2019-04-28T00:05:12.726Z,22.57
2019-04-28T00:07:44.656Z,20.73
2019-04-28T00:10:16.551Z,22.30
2019-04-28T00:12:48.518Z,22.50
2019-04-28T00:15:20.936Z,24.73
2019-04-28T00:17:53.129Z,22.60
2019-04-28T00:20:36.025Z,22.57
2019-04-28T00:23:18.297Z,23.33
2019-04-28T00:26:01.583Z,23.80
2019-04-28T00:28:34.598Z,23.30
2019-04-28T00:31:06.773Z,21.83
2019-04-28T00:33:38.672Z,22.33
2019-04-28T00:36:11.564Z,22.50
2019-04-28T00:38:43.489Z,23.43
2019-04-28T00:41:15.386Z,22.30
2019-04-28T00:43:47.278Z,22.50
2019-04-28T00:46:21.203Z,22.83
2019-04-28T00:48:53.258Z,22.20
2019-04-28T00:51:25.155Z,21.90
2019-04-28T00:53:57.042Z,23.50
2019-04-28T00:56:28.929Z,23.50
2019-04-28T00:59:01.661Z,24.23
2019-04-28T01:01:48.568Z,27.80
2019-04-28T01:04:21.947Z,25.93
2019-04-28T01:06:54.296Z,25.90
2019-04-28T01:09:26.373Z,25.80
2019-04-28T01:11:58.246Z,28.33
2019-04-28T01:14:30.972Z,29.17
2019-04-28T01:17:09.859Z,28.43
2019-04-28T01:19:43.994Z,28.10
2019-04-28T01:22:20.136Z,25.17
2019-04-28T01:24:52.177Z,25.83
2019-04-28T01:27:50.581Z,25.83
2019-04-28T01:30:50.572Z,25.50
2019-04-28T01:33:56.543Z,26.87
2019-04-28T01:36:30.121Z,26.13
2019-04-28T01:39:02.097Z,25.60
2019-04-28T01:41:36.850Z,25.60
2019-04-28T01:44:10.210Z,23.20
2019-04-28T01:46:42.932Z,24.33
2019-04-28T01:49:14.921Z,25.20
2019-04-28T01:52:00.550Z,25.70
2019-04-28T01:54:32.221Z,25.70
2019-04-28T01:57:04.114Z,26.57
2019-04-28T01:59:35.939Z,25.97
2019-04-28T02:02:09.959Z,25.47
2019-04-28T02:04:41.625Z,26.10
2019-04-28T02:07:13.516Z,25.37
2019-04-28T02:09:45.429Z,26.97
2019-04-28T02:12:17.316Z,27.33
2019-04-28T02:14:52.156Z,26.63
2019-04-28T02:17:24.368Z,27.77
2019-04-28T02:19:56.365Z,27.23
2019-04-28T02:22:47.114Z,27.90
2019-04-28T02:25:19.576Z,25.97
2019-04-28T02:27:52.694Z,24.80
2019-04-28T02:30:40.971Z,23.73
2019-04-28T02:32:58.085Z,22.90
2019-04-28T02:35:31.490Z,21.63
2019-04-28T02:38:03.683Z,18.77
2019-04-28T02:40:35.561Z,19.47
2019-04-28T02:43:07.375Z,19.50
2019-04-28T02:45:41.281Z,19.33
2019-04-28T02:48:21.104Z,18.90
2019-04-28T02:51:01.048Z,17.00
2019-04-28T02:53:35.974Z,17.90
2019-04-28T02:56:07.798Z,17.30
2019-04-28T02:58:41.518Z,15.87
2019-04-28T03:01:22.793Z,15.20
2019-04-28T03:03:46.782Z,15.47
2019-04-28T03:06:20.726Z,20.43
2019-04-28T03:08:52.159Z,14.47
2019-04-28T03:11:24.373Z,14.93
2019-04-28T03:13:56.451Z,14.97
2019-04-28T03:16:30.026Z,13.93
2019-04-28T03:19:02.915Z,13.33
2019-04-28T03:21:34.937Z,14.17
2019-04-28T03:24:06.811Z,13.07
2019-04-28T03:26:52.401Z,14.13
2019-04-28T03:29:36.658Z,12.63
2019-04-28T03:32:32.334Z,11.20
2019-04-28T03:34:53.896Z,11.30
2019-04-28T03:37:24.589Z,11.77
2019-04-28T03:39:56.547Z,11.77
2019-04-28T03:42:31.153Z,13.30
2019-04-28T03:45:03.632Z,11.33
2019-04-28T03:47:35.519Z,12.27
2019-04-28T03:50:10.235Z,11.30
2019-04-28T03:52:41.636Z,11.17
2019-04-28T03:55:13.607Z,11.20
2019-04-28T03:57:45.477Z,9.83
2019-04-28T04:00:17.285Z,9.50
2019-04-28T04:02:50.770Z,9.53
2019-04-28T04:05:23.122Z,9.63
2019-04-28T04:07:55.012Z,8.50
2019-04-28T04:10:40.297Z,8.60
2019-04-28T04:13:16.278Z,8.07
2019-04-28T04:16:24.850Z,9.47
2019-04-28T04:19:00.522Z,7.67
2019-04-28T04:21:31.604Z,7.17
2019-04-28T04:24:03.620Z,7.37
2019-04-28T04:26:35.506Z,7.30
2019-04-28T04:29:07.377Z,7.37
2019-04-28T04:31:41.344Z,6.53
2019-04-28T04:34:12.771Z,6.10
2019-04-28T04:36:44.670Z,6.00
2019-04-28T04:39:16.455Z,6.40
2019-04-28T04:41:50.394Z,5.37
2019-04-28T04:44:21.900Z,5.30
2019-04-28T04:46:53.772Z,5.17
2019-04-28T04:49:25.646Z,5.13
2019-04-28T04:51:59.924Z,5.07
2019-04-28T04:54:36.577Z,4.87
2019-04-28T04:57:06.683Z,4.50
2019-04-28T04:59:40.112Z,3.93
2019-04-28T05:02:37.230Z,4.30
2019-04-28T05:05:22.219Z,4.30
2019-04-28T05:07:54.373Z,4.57
2019-04-28T05:10:26.403Z,3.93
2019-04-28T05:12:59.904Z,3.50
2019-04-28T05:15:31.795Z,3.60
2019-04-28T05:18:03.796Z,3.70
2019-04-28T05:20:35.607Z,3.67
2019-04-28T05:23:16.791Z,3.10
2019-04-28T05:25:49.723Z,3.20
2019-04-28T05:28:21.706Z,3.23
2019-04-28T05:30:53.645Z,6.40
2019-04-28T05:33:32.024Z,3.80
2019-04-28T05:36:03.155Z,3.70
2019-04-28T05:38:35.083Z,3.83
2019-04-28T05:41:06.975Z,3.57
2019-04-28T05:43:40.410Z,4.20
2019-04-28T05:46:12.480Z,4.10
2019-04-28T05:48:51.279Z,4.40
2019-04-28T05:51:24.602Z,4.53
2019-04-28T05:54:03.885Z,4.87
2019-04-28T05:56:43.199Z,5.13
2019-04-28T05:59:19.328Z,5.17
2019-04-28T06:02:02.353Z,4.97
2019-04-28T06:04:34.229Z,5.30
2019-04-28T06:07:13.653Z,6.20
2019-04-28T06:09:50.097Z,5.80
2019-04-28T06:12:22.246Z,5.97
2019-04-28T06:14:54.334Z,6.20
2019-04-28T06:17:26.363Z,6.83
2019-04-28T06:20:00.068Z,6.63
2019-04-28T06:22:31.775Z,6.13
2019-04-28T06:25:03.676Z,6.57
2019-04-28T06:27:35.604Z,6.90
2019-04-28T06:30:08.055Z,7.10
2019-04-28T06:32:39.945Z,8.07
2019-04-28T06:35:11.799Z,7.67
2019-04-28T06:37:43.674Z,7.70
2019-04-28T06:40:15.508Z,7.43
2019-04-28T06:42:47.412Z,7.57
2019-04-28T06:45:19.259Z,8.43
2019-04-28T06:47:51.816Z,8.00
2019-04-28T06:50:23.664Z,7.10
2019-04-28T06:52:55.474Z,8.40
2019-04-28T06:55:27.829Z,9.77
2019-04-28T06:57:59.732Z,8.83
2019-04-28T07:00:31.950Z,12.87
2019-04-28T07:03:04.154Z,8.73
2019-04-28T07:05:36.063Z,8.77
2019-04-28T07:08:07.951Z,8.37
2019-04-28T07:10:39.828Z,8.43
2019-04-28T07:13:11.757Z,11.03
2019-04-28T07:15:44.641Z,8.83
2019-04-28T07:18:16.539Z,8.93
2019-04-28T07:20:57.292Z,7.50
2019-04-28T07:23:29.312Z,7.80
2019-04-28T07:26:01.134Z,7.50
2019-04-28T07:28:32.997Z,6.80
2019-04-28T07:31:04.956Z,7.60
2019-04-28T07:33:36.853Z,7.13
2019-04-28T07:36:08.770Z,8.00
2019-04-28T07:38:40.657Z,7.60
2019-04-28T07:41:12.519Z,7.37
2019-04-28T07:43:44.399Z,6.90
2019-04-28T07:46:16.204Z,7.10
2019-04-28T07:48:48.090Z,7.33
2019-04-28T07:51:22.181Z,7.10
2019-04-28T07:53:57.880Z,7.37
2019-04-28T07:56:29.701Z,8.00
2019-04-28T07:59:01.722Z,7.60
2019-04-28T08:01:33.660Z,8.40
2019-04-28T08:04:05.961Z,9.07
2019-04-28T08:06:37.835Z,9.47
2019-04-28T08:09:13.096Z,8.93
2019-04-28T08:11:47.226Z,7.83
2019-04-28T08:14:19.833Z,7.43
2019-04-28T08:16:53.210Z,8.03
2019-04-28T08:19:25.605Z,7.87
2019-04-28T08:21:57.410Z,7.87
2019-04-28T08:24:29.361Z,7.30
2019-04-28T08:27:01.241Z,7.60
2019-04-28T08:29:33.229Z,6.67
2019-04-28T08:32:24.623Z,6.80
2019-04-28T08:34:56.551Z,6.63
2019-04-28T08:37:28.337Z,6.20
2019-04-28T08:40:00.167Z,7.30
2019-04-28T08:42:32.010Z,7.13
2019-04-28T08:45:04.044Z,6.77
2019-04-28T08:47:36.101Z,6.67
2019-04-28T08:50:08.034Z,6.63
2019-04-28T08:52:39.981Z,6.47
2019-04-28T08:55:11.941Z,7.03
2019-04-28T08:57:45.631Z,6.43
2019-04-28T09:00:18.210Z,6.70
2019-04-28T09:02:50.102Z,7.47
2019-04-28T09:05:22.051Z,7.63
2019-04-28T09:07:53.972Z,7.37
2019-04-28T09:10:25.813Z,7.17
2019-04-28T09:12:57.700Z,7.33
2019-04-28T09:15:29.561Z,7.80
2019-04-28T09:18:02.708Z,13.37
2019-04-28T09:20:34.836Z,7.33
2019-04-28T09:23:06.712Z,8.13
2019-04-28T09:25:40.818Z,7.13
2019-04-28T09:28:14.507Z,7.23
2019-04-28T09:30:46.659Z,7.37
2019-04-28T09:33:19.159Z,7.30
2019-04-28T09:35:52.056Z,7.00
2019-04-28T09:38:24.715Z,9.67
2019-04-28T09:40:56.841Z,6.77
2019-04-28T09:43:46.581Z,6.03
2019-04-28T09:46:27.937Z,8.07
2019-04-28T09:49:00.048Z,7.07
2019-04-28T09:51:33.600Z,7.57
2019-04-28T09:54:05.747Z,6.00
2019-04-28T09:56:37.610Z,6.90
2019-04-28T09:59:09.481Z,5.80
2019-04-28T10:01:41.357Z,5.90
2019-04-28T10:04:13.226Z,6.00
2019-04-28T10:06:45.086Z,6.40
2019-04-28T10:09:16.890Z,6.47
2019-04-28T10:11:48.763Z,8.10
2019-04-28T10:14:20.727Z,5.53
2019-04-28T10:16:52.581Z,6.97
2019-04-28T10:19:24.426Z,10.33
2019-04-28T10:21:56.285Z,5.97
2019-04-28T10:24:28.255Z,7.17
2019-04-28T10:27:00.370Z,11.40
2019-04-28T10:29:33.286Z,6.47
2019-04-28T10:32:05.148Z,7.67
2019-04-28T10:34:37.022Z,5.97
2019-04-28T10:37:08.895Z,6.67
2019-04-28T10:39:55.574Z,5.23
2019-04-28T10:42:27.433Z,6.03
2019-04-28T10:45:00.213Z,5.53
2019-04-28T10:47:32.575Z,5.43
2019-04-28T10:50:04.825Z,5.97
2019-04-28T10:52:36.840Z,5.77
2019-04-28T10:55:08.709Z,5.43
2019-04-28T10:57:40.589Z,4.90
2019-04-28T11:00:13.386Z,5.40
2019-04-28T11:02:45.316Z,4.80
2019-04-28T11:05:31.750Z,4.43
2019-04-28T11:08:05.852Z,4.60
2019-04-28T11:10:37.745Z,5.20
2019-04-28T11:13:11.125Z,5.47
2019-04-28T11:15:43.193Z,4.23
2019-04-28T11:18:15.916Z,4.60
2019-04-28T11:20:47.759Z,4.70
2019-04-28T11:23:19.763Z,5.40
2019-04-28T11:25:52.450Z,6.47
2019-04-28T11:28:24.389Z,5.17
2019-04-28T11:30:56.423Z,5.20
2019-04-28T11:33:52.686Z,4.33
2019-04-28T11:36:24.532Z,4.47
2019-04-28T11:38:56.399Z,4.70
2019-04-28T11:41:28.388Z,4.40
2019-04-28T11:44:00.196Z,4.10
2019-04-28T11:46:31.979Z,3.87
2019-04-28T11:49:03.776Z,4.40
2019-04-28T11:51:35.545Z,4.37
2019-04-28T11:54:07.420Z,4.37
2019-04-28T11:56:41.523Z,5.13
2019-04-28T11:59:12.875Z,4.33
2019-04-28T12:01:44.659Z,4.27
2019-04-28T12:04:17.907Z,4.37
2019-04-28T12:06:49.783Z,5.67
2019-04-28T12:09:43.910Z,4.47
2019-04-28T12:12:41.436Z,6.40
2019-04-28T12:15:32.148Z,5.20
2019-04-28T12:18:37.836Z,4.27
2019-04-28T12:21:10.677Z,4.27
2019-04-28T12:23:42.530Z,4.00
2019-04-28T12:26:14.336Z,4.27
2019-04-28T12:28:46.184Z,4.27
2019-04-28T12:31:18.141Z,4.37
2019-04-28T12:33:50.251Z,4.70
2019-04-28T12:36:22.201Z,4.47
2019-04-28T12:38:54.313Z,4.93
2019-04-28T12:41:26.175Z,4.17
2019-04-28T12:43:58.093Z,5.20
2019-04-28T12:46:29.953Z,6.60
2019-04-28T12:49:06.074Z,12.20
2019-04-28T12:51:37.894Z,4.63
2019-04-28T12:54:11.447Z,8.53
2019-04-28T12:56:43.313Z,4.67
2019-04-28T12:59:21.951Z,13.07
2019-04-28T13:02:05.025Z,6.63
2019-04-28T13:04:43.195Z,9.33
2019-04-28T13:07:15.468Z,13.67
2019-04-28T13:09:48.611Z,4.30
2019-04-28T13:12:21.778Z,7.30
2019-04-28T13:14:54.555Z,3.47
2019-04-28T13:17:27.092Z,4.40
2019-04-28T13:20:00.722Z,7.73
2019-04-28T13:22:34.028Z,3.77
2019-04-28T13:25:07.347Z,4.27
2019-04-28T13:27:40.910Z,6.23
2019-04-28T13:30:13.762Z,3.80
2019-04-28T13:32:46.426Z,13.53
2019-04-28T13:35:21.598Z,3.47
2019-04-28T13:37:54.124Z,4.43
2019-04-28T13:40:30.933Z,4.17
2019-04-28T13:43:03.430Z,3.80
2019-04-28T13:45:36.125Z,5.43
2019-04-28T13:48:08.168Z,4.37
2019-04-28T13:50:43.123Z,5.63
2019-04-28T13:53:16.187Z,9.43
2019-04-28T13:56:07.055Z,4.20
2019-04-28T13:59:02.932Z,3.00
2019-04-28T14:01:46.607Z,3.47
2019-04-28T14:04:31.096Z,5.53
2019-04-28T14:07:07.450Z,3.73
2019-04-28T14:09:39.397Z,3.50
2019-04-28T14:12:11.605Z,4.10
2019-04-28T14:14:43.803Z,4.10
2019-04-28T14:17:16.089Z,5.80
2019-04-28T14:19:48.093Z,5.30
2019-04-28T14:22:19.999Z,4.80
2019-04-28T14:24:52.142Z,3.93
2019-04-28T14:27:24.205Z,4.03
2019-04-28T14:29:56.088Z,3.07
2019-04-28T14:32:28.041Z,2.77
2019-04-28T14:35:00.083Z,2.60
2019-04-28T14:37:33.285Z,3.00
2019-04-28T14:40:05.998Z,3.37
2019-04-28T14:42:37.849Z,2.90
2019-04-28T14:45:10.021Z,2.93
2019-04-28T14:47:42.035Z,4.40
2019-04-28T14:50:14.195Z,4.27
2019-04-28T14:52:46.101Z,3.50
2019-04-28T14:55:19.321Z,7.03
2019-04-28T14:57:52.535Z,6.60
2019-04-28T15:00:30.666Z,3.57
2019-04-28T15:03:06.779Z,5.27
2019-04-28T15:05:57.021Z,8.57
2019-04-28T15:08:46.342Z,5.30
2019-04-28T15:11:43.258Z,4.20
2019-04-28T15:14:15.126Z,4.77
2019-04-28T15:16:46.977Z,6.90
2019-04-28T15:19:18.976Z,5.70
2019-04-28T15:21:51.065Z,16.93
2019-04-28T15:24:23.271Z,5.40
2019-04-28T15:26:56.284Z,4.43
2019-04-28T15:29:28.262Z,7.43
2019-04-28T15:32:00.206Z,7.57
2019-04-28T15:34:32.196Z,14.00
2019-04-28T15:37:10.176Z,6.90
2019-04-28T15:39:37.691Z,10.87
2019-04-28T15:42:09.610Z,25.67
2019-04-28T15:44:41.569Z,27.67
2019-04-28T15:47:13.732Z,18.03
2019-04-28T15:49:45.912Z,9.90
2019-04-28T15:52:17.840Z,7.07
2019-04-28T15:54:49.725Z,18.50
2019-04-28T15:57:21.949Z,15.87
2019-04-28T15:59:54.198Z,11.33
2019-04-28T16:02:27.926Z,9.07
2019-04-28T16:05:00.164Z,10.17
2019-04-28T16:07:32.031Z,8.20
2019-04-28T16:10:03.952Z,8.50
2019-04-28T16:12:35.842Z,6.70
2019-04-28T16:15:07.841Z,6.93
2019-04-28T16:17:39.716Z,8.37
2019-04-28T16:20:11.715Z,8.63
2019-04-28T16:22:43.832Z,26.13
2019-04-28T16:25:15.648Z,38.80
2019-04-28T16:27:47.541Z,36.00
2019-04-28T16:30:19.428Z,24.33
2019-04-28T16:32:51.318Z,14.57
2019-04-28T16:35:23.202Z,11.40
2019-04-28T16:37:55.288Z,22.43
2019-04-28T16:40:33.399Z,10.57
2019-04-28T16:43:14.808Z,11.17
2019-04-28T16:45:46.684Z,15.53
2019-04-28T16:48:18.573Z,17.93
2019-04-28T16:50:50.365Z,11.70
2019-04-28T16:53:22.560Z,17.23
2019-04-28T16:56:16.452Z,32.20
2019-04-28T16:59:06.030Z,29.63
2019-04-28T17:02:09.262Z,29.80
2019-04-28T17:04:41.328Z,8.77
2019-04-28T17:07:13.228Z,13.23
2019-04-28T17:09:45.328Z,8.40
2019-04-28T17:12:17.243Z,9.30
2019-04-28T17:14:49.257Z,8.73
2019-04-28T17:17:21.150Z,13.63
2019-04-28T17:19:53.077Z,8.07
2019-04-28T17:22:24.989Z,7.97
2019-04-28T17:24:56.861Z,6.77
2019-04-28T17:27:28.740Z,7.97
2019-04-28T17:30:00.625Z,8.70
2019-04-28T17:32:32.827Z,6.90
2019-04-28T17:35:04.995Z,7.13
2019-04-28T17:37:36.906Z,7.00
2019-04-28T17:40:08.921Z,8.03
2019-04-28T17:42:40.852Z,7.60
2019-04-28T17:45:12.876Z,6.50
2019-04-28T17:47:45.508Z,6.30
2019-04-28T17:50:19.038Z,7.17
2019-04-28T17:52:50.905Z,10.40
2019-04-28T17:55:23.103Z,7.00
2019-04-28T17:57:55.025Z,8.03
2019-04-28T18:00:39.444Z,7.57
2019-04-28T18:03:36.042Z,8.20
2019-04-28T18:06:17.871Z,10.80
2019-04-28T18:08:47.928Z,8.37
2019-04-28T18:11:19.851Z,7.50
2019-04-28T18:13:51.972Z,9.20
2019-04-28T18:16:44.231Z,7.07
2019-04-28T18:19:16.339Z,8.37
2019-04-28T18:21:48.282Z,11.10
2019-04-28T18:24:20.179Z,10.80
2019-04-28T18:26:52.508Z,8.17
2019-04-28T18:29:24.423Z,8.63
2019-04-28T18:32:13.828Z,9.47
2019-04-28T18:34:53.982Z,15.10
2019-04-28T18:37:45.031Z,8.93
2019-04-28T18:40:39.273Z,6.50
2019-04-28T18:43:21.734Z,7.23
2019-04-28T18:45:53.898Z,7.33
2019-04-28T18:48:26.678Z,6.70
2019-04-28T18:50:58.607Z,7.23
2019-04-28T18:53:30.497Z,8.03
2019-04-28T18:56:02.324Z,9.90
2019-04-28T18:58:34.300Z,6.90
2019-04-28T19:01:19.133Z,6.93
2019-04-28T19:03:51.017Z,6.13
2019-04-28T19:06:23.286Z,8.00
2019-04-28T19:09:00.239Z,8.97
2019-04-28T19:11:41.317Z,7.70
2019-04-28T19:14:18.433Z,6.40
2019-04-28T19:17:04.829Z,8.23
2019-04-28T19:19:38.928Z,8.10
2019-04-28T19:22:11.185Z,5.00
2019-04-28T19:24:43.164Z,5.73
2019-04-28T19:27:15.160Z,15.57
2019-04-28T19:29:47.057Z,13.23
2019-04-28T19:32:19.126Z,28.83
2019-04-28T19:34:51.182Z,13.07
2019-04-28T19:37:23.277Z,28.80
2019-04-28T19:39:55.351Z,33.73
2019-04-28T19:42:27.676Z,17.53
2019-04-28T19:44:59.679Z,7.67
2019-04-28T19:47:31.602Z,8.40
2019-04-28T19:50:03.626Z,16.97
2019-04-28T19:52:39.871Z,7.33
2019-04-28T19:55:18.228Z,8.17
2019-04-28T19:58:11.781Z,5.17
2019-04-28T20:00:56.316Z,7.00
2019-04-28T20:03:28.332Z,7.77
2019-04-28T20:06:00.239Z,5.43
2019-04-28T20:08:32.179Z,8.90
2019-04-28T20:11:04.080Z,9.90
2019-04-28T20:13:36.005Z,5.97
2019-04-28T20:16:08.015Z,8.60
2019-04-28T20:18:40.425Z,5.40
2019-04-28T20:21:12.361Z,5.47
2019-04-28T20:23:44.500Z,8.40
2019-04-28T20:26:16.509Z,5.83
2019-04-28T20:28:48.463Z,9.67
2019-04-28T20:31:20.413Z,5.80
2019-04-28T20:33:52.568Z,4.87
2019-04-28T20:36:46.403Z,6.83
2019-04-28T20:39:26.552Z,5.57
2019-04-28T20:42:17.635Z,5.23
2019-04-28T20:44:49.913Z,7.40
2019-04-28T20:47:22.119Z,4.67
2019-04-28T20:49:55.142Z,6.00
2019-04-28T20:52:27.095Z,4.57
2019-04-28T20:54:59.121Z,5.40
2019-04-28T20:57:31.115Z,5.40
2019-04-28T21:00:05.165Z,5.40
2019-04-28T21:02:38.672Z,4.27
2019-04-28T21:05:10.550Z,5.67
2019-04-28T21:07:42.541Z,5.23
2019-04-28T21:10:14.678Z,4.30
2019-04-28T21:12:46.868Z,4.67
2019-04-28T21:15:19.782Z,4.77
2019-04-28T21:17:51.689Z,5.87
2019-04-28T21:20:23.724Z,5.13
2019-04-28T21:22:56.062Z,5.47
2019-04-28T21:25:27.911Z,5.50
2019-04-28T21:28:00.015Z,4.80
2019-04-28T21:30:31.957Z,5.57
2019-04-28T21:33:03.938Z,5.37
2019-04-28T21:35:35.808Z,5.30
2019-04-28T21:38:07.683Z,5.87
2019-04-28T21:40:40.813Z,5.87
2019-04-28T21:43:31.581Z,6.17
2019-04-28T21:46:24.331Z,6.40
2019-04-28T21:49:05.272Z,6.47
2019-04-28T21:51:37.135Z,7.03
2019-04-28T21:54:09.021Z,6.57
2019-04-28T21:56:40.899Z,7.43
2019-04-28T21:59:12.794Z,6.67
2019-04-28T22:01:44.779Z,7.00
2019-04-28T22:04:16.636Z,9.90
2019-04-28T22:06:48.520Z,8.40
2019-04-28T22:09:21.430Z,6.70
2019-04-28T22:11:53.302Z,7.87
2019-04-28T22:14:25.169Z,6.90
2019-04-28T22:16:57.051Z,6.17
2019-04-28T22:19:28.935Z,7.00
2019-04-28T22:22:00.807Z,7.53
2019-04-28T22:24:51.794Z,8.70
2019-04-28T22:27:28.668Z,7.70
2019-04-28T22:30:00.530Z,7.37
2019-04-28T22:32:33.492Z,7.63
2019-04-28T22:35:05.582Z,8.30
2019-04-28T22:37:37.451Z,7.27
2019-04-28T22:40:13.439Z,8.80
2019-04-28T22:42:45.315Z,7.40
2019-04-28T22:45:17.375Z,8.13
2019-04-28T22:47:49.349Z,8.03
2019-04-28T22:50:40.245Z,8.90
2019-04-28T22:53:12.711Z,8.50
2019-04-28T22:55:52.685Z,7.60
2019-04-28T22:58:42.630Z,7.80
2019-04-28T23:01:21.606Z,8.10
2019-04-28T23:03:58.447Z,8.47
2019-04-28T23:06:30.321Z,8.93
2019-04-28T23:09:02.318Z,8.20
2019-04-28T23:11:35.713Z,7.77
2019-04-28T23:14:07.583Z,8.33
2019-04-28T23:16:39.393Z,8.97
2019-04-28T23:19:13.499Z,8.47
2019-04-28T23:22:10.289Z,8.37
2019-04-28T23:24:42.176Z,10.67
2019-04-28T23:27:14.042Z,9.17
2019-04-28T23:29:45.924Z,9.63
2019-04-28T23:32:17.795Z,9.27
2019-04-28T23:34:49.600Z,8.17
2019-04-28T23:37:21.424Z,9.23
2019-04-28T23:39:53.279Z,9.00
2019-04-28T23:42:48.833Z,10.07
2019-04-28T23:45:20.712Z,10.70
2019-04-28T23:47:53.494Z,10.23
2019-04-28T23:50:34.694Z,10.63
2019-04-28T23:53:09.914Z,11.07
2019-04-28T23:55:41.771Z,9.90
2019-04-28T23:58:14.659Z,10.73
